createdAt,value
2019-05-01T00:00:41.060Z,77.11
2019-05-01T00:01:41.159Z,77.11
2019-05-01T00:02:41.038Z,77.22
2019-05-01T00:03:41.567Z,77.22
2019-05-01T00:04:41.566Z,77.11
2019-05-01T00:05:41.005Z,77.11
2019-05-01T00:06:41.024Z,77.11
2019-05-01T00:07:40.992Z,77.01
2019-05-01T00:08:40.975Z,77.11
2019-05-01T00:09:40.965Z,77.11
2019-05-01T00:10:40.952Z,77.11
2019-05-01T00:11:40.973Z,77.11
2019-05-01T00:12:40.940Z,77.11
2019-05-01T00:13:40.929Z,77.11
2019-05-01T00:14:40.914Z,77.11
2019-05-01T00:15:40.902Z,77.11
2019-05-01T00:16:40.920Z,77.11
2019-05-01T00:17:40.880Z,77.22
2019-05-01T00:18:41.638Z,77.11
2019-05-01T00:19:40.860Z,77.01
2019-05-01T00:20:40.850Z,77.25
2019-05-01T00:21:40.873Z,77.15
2019-05-01T00:22:40.828Z,77.15
2019-05-01T00:23:40.818Z,77.01
2019-05-01T00:24:40.807Z,76.90
2019-05-01T00:25:40.803Z,77.01
2019-05-01T00:26:40.825Z,77.01
2019-05-01T00:27:40.782Z,77.11
2019-05-01T00:28:40.775Z,77.11
2019-05-01T00:29:40.764Z,77.11
2019-05-01T00:30:40.750Z,77.22
2019-05-01T00:31:40.743Z,77.22
2019-05-01T00:32:40.751Z,77.22
2019-05-01T00:33:40.720Z,77.22
2019-05-01T00:34:40.704Z,77.31
2019-05-01T00:35:40.692Z,77.22
2019-05-01T00:36:40.689Z,77.11
2019-05-01T00:37:40.698Z,77.11
2019-05-01T00:38:40.667Z,77.11
2019-05-01T00:39:40.650Z,77.01
2019-05-01T00:40:40.639Z,77.01
2019-05-01T00:41:40.628Z,77.01
2019-05-01T00:42:40.649Z,76.90
2019-05-01T00:43:40.617Z,76.81
2019-05-01T00:44:40.605Z,76.77
2019-05-01T00:45:40.593Z,76.87
2019-05-01T00:46:41.546Z,76.97
2019-05-01T00:47:40.594Z,77.08
2019-05-01T00:48:40.565Z,77.08
2019-05-01T00:49:40.546Z,76.97
2019-05-01T00:50:41.085Z,76.97
2019-05-01T00:51:40.533Z,76.97
2019-05-01T00:52:41.452Z,76.97
2019-05-01T00:53:41.453Z,76.97
2019-05-01T00:54:41.452Z,76.77
2019-05-01T00:55:40.481Z,76.77
2019-05-01T00:56:40.517Z,76.77
2019-05-01T00:57:40.490Z,76.56
2019-05-01T00:58:40.459Z,76.43
2019-05-01T00:59:40.449Z,76.32
2019-05-01T01:00:43.215Z,76.22
2019-05-01T01:01:40.431Z,76.12
2019-05-01T01:02:40.437Z,76.02
2019-05-01T01:03:41.033Z,75.92
2019-05-01T01:04:40.388Z,76.02
2019-05-01T01:05:40.386Z,75.71
2019-05-01T01:06:40.376Z,75.92
2019-05-01T01:07:40.385Z,75.82
2019-05-01T01:08:40.352Z,75.71
2019-05-01T01:09:40.343Z,75.71
2019-05-01T01:10:40.335Z,75.61
2019-05-01T01:11:40.323Z,75.61
2019-05-01T01:12:40.333Z,75.71
2019-05-01T01:13:40.301Z,75.71
2019-05-01T01:14:40.291Z,75.71
2019-05-01T01:15:40.281Z,75.51
2019-05-01T01:16:40.269Z,75.41
2019-05-01T01:17:40.281Z,75.31
2019-05-01T01:18:40.252Z,75.31
2019-05-01T01:19:41.093Z,75.10
2019-05-01T01:20:40.230Z,75.00
2019-05-01T01:21:40.240Z,74.90
2019-05-01T01:22:40.236Z,74.79
2019-05-01T01:23:40.197Z,74.69
2019-05-01T01:24:40.210Z,74.59
2019-05-01T01:25:41.586Z,74.49
2019-05-01T01:26:40.166Z,74.49
2019-05-01T01:27:40.159Z,74.18
2019-05-01T01:28:41.027Z,74.08
2019-05-01T01:29:40.132Z,73.94
2019-05-01T01:30:40.625Z,73.98
2019-05-01T01:31:40.114Z,73.88
2019-05-01T01:32:40.129Z,73.57
2019-05-01T01:33:41.023Z,73.43
2019-05-01T01:34:40.083Z,73.33
2019-05-01T01:35:40.079Z,73.23
2019-05-01T01:36:40.062Z,73.36
2019-05-01T01:37:40.052Z,73.33
2019-05-01T01:38:40.069Z,73.36
2019-05-01T01:39:40.031Z,73.27
2019-05-01T01:40:40.019Z,72.92
2019-05-01T01:41:40.008Z,73.13
2019-05-01T01:42:39.999Z,73.06
2019-05-01T01:43:40.019Z,72.96
2019-05-01T01:44:39.976Z,72.75
2019-05-01T01:45:39.966Z,72.55
2019-05-01T01:46:39.958Z,72.45
2019-05-01T01:47:39.945Z,72.45
2019-05-01T01:48:40.796Z,72.04
2019-05-01T01:49:39.931Z,71.84
2019-05-01T01:50:39.914Z,71.73
2019-05-01T01:51:39.903Z,71.63
2019-05-01T01:52:40.574Z,71.53
2019-05-01T01:53:39.913Z,71.43
2019-05-01T01:54:40.671Z,71.33
2019-05-01T01:55:39.861Z,71.02
2019-05-01T01:56:39.887Z,70.61
2019-05-01T01:57:39.842Z,70.61
2019-05-01T01:58:42.196Z,70.40
2019-05-01T01:59:39.819Z,70.10
2019-05-01T02:00:40.790Z,70.10
2019-05-01T02:01:39.798Z,70.00
2019-05-01T02:02:39.789Z,69.96
2019-05-01T02:03:39.778Z,69.76
2019-05-01T02:04:39.804Z,69.76
2019-05-01T02:05:39.759Z,69.66
2019-05-01T02:06:39.748Z,69.76
2019-05-01T02:07:39.745Z,69.66
2019-05-01T02:08:40.697Z,69.35
2019-05-01T02:09:39.766Z,69.46
2019-05-01T02:10:43.061Z,69.05
2019-05-01T02:11:39.783Z,68.84
2019-05-01T02:12:39.693Z,68.64
2019-05-01T02:13:39.676Z,68.44
2019-05-01T02:14:39.701Z,68.33
2019-05-01T02:15:39.667Z,68.33
2019-05-01T02:16:39.652Z,68.13
2019-05-01T02:17:39.640Z,68.03
2019-05-01T02:18:39.631Z,67.93
2019-05-01T02:19:39.639Z,67.72
2019-05-01T02:20:39.599Z,67.72
2019-05-01T02:21:39.631Z,67.62
2019-05-01T02:22:39.587Z,67.93
2019-05-01T02:23:39.576Z,68.23
2019-05-01T02:24:40.236Z,68.33
2019-05-01T02:25:39.548Z,68.23
2019-05-01T02:26:39.536Z,68.64
2019-05-01T02:27:39.526Z,68.95
2019-05-01T02:28:39.514Z,69.05
2019-05-01T02:29:39.536Z,68.95
2019-05-01T02:30:39.547Z,68.95
2019-05-01T02:31:39.484Z,68.84
2019-05-01T02:32:39.524Z,68.74
2019-05-01T02:33:39.507Z,68.95
2019-05-01T02:34:39.482Z,69.25
2019-05-01T02:35:39.449Z,68.84
2019-05-01T02:36:39.456Z,69.25
2019-05-01T02:37:39.432Z,69.35
2019-05-01T02:38:39.420Z,69.56
2019-05-01T02:39:39.430Z,69.76
2019-05-01T02:40:39.391Z,69.76
2019-05-01T02:41:46.420Z,69.66
2019-05-01T02:42:41.220Z,69.76
2019-05-01T02:43:39.367Z,69.96
2019-05-01T02:44:40.250Z,70.07
2019-05-01T02:45:39.344Z,70.17
2019-05-01T02:46:39.327Z,70.37
2019-05-01T02:47:39.326Z,70.37
2019-05-01T02:48:39.319Z,70.48
2019-05-01T02:49:39.341Z,70.57
2019-05-01T02:50:39.284Z,70.48
2019-05-01T02:51:39.280Z,70.48
2019-05-01T02:52:39.272Z,70.48
2019-05-01T02:53:39.257Z,70.17
2019-05-01T02:54:39.280Z,69.86
2019-05-01T02:55:39.875Z,69.76
2019-05-01T02:56:39.229Z,69.86
2019-05-01T02:57:39.218Z,69.56
2019-05-01T02:58:39.201Z,69.69
2019-05-01T02:59:39.219Z,69.25
2019-05-01T03:00:39.270Z,69.35
2019-05-01T03:01:47.305Z,69.46
2019-05-01T03:02:40.179Z,69.46
2019-05-01T03:03:39.151Z,69.35
2019-05-01T03:04:39.167Z,69.46
2019-05-01T03:05:39.127Z,69.46
2019-05-01T03:06:39.118Z,69.35
2019-05-01T03:07:39.111Z,69.38
2019-05-01T03:08:39.131Z,69.25
2019-05-01T03:09:39.117Z,69.05
2019-05-01T03:10:39.080Z,69.05
2019-05-01T03:11:39.070Z,69.05
2019-05-01T03:12:39.061Z,69.05
2019-05-01T03:13:39.043Z,69.05
2019-05-01T03:14:39.063Z,69.05
2019-05-01T03:15:39.026Z,68.95
2019-05-01T03:16:39.031Z,69.05
2019-05-01T03:17:39.005Z,68.95
2019-05-01T03:18:38.997Z,69.05
2019-05-01T03:19:39.035Z,69.15
2019-05-01T03:20:38.981Z,69.05
2019-05-01T03:21:38.960Z,69.29
2019-05-01T03:22:38.980Z,69.29
2019-05-01T03:23:39.889Z,69.38
2019-05-01T03:24:38.941Z,69.38
2019-05-01T03:25:38.947Z,69.38
2019-05-01T03:26:38.978Z,69.18
2019-05-01T03:27:38.905Z,69.08
2019-05-01T03:28:39.806Z,69.08
2019-05-01T03:29:38.876Z,69.18
2019-05-01T03:30:39.907Z,68.77
2019-05-01T03:31:38.861Z,68.77
2019-05-01T03:32:38.898Z,68.77
2019-05-01T03:33:38.856Z,68.47
2019-05-01T03:34:38.823Z,68.57
2019-05-01T03:35:38.842Z,68.67
2019-05-01T03:36:38.813Z,68.88
2019-05-01T03:37:38.809Z,68.77
2019-05-01T03:38:38.781Z,68.98
2019-05-01T03:39:39.440Z,69.18
2019-05-01T03:40:38.791Z,69.38
2019-05-01T03:41:38.828Z,69.59
2019-05-01T03:42:38.739Z,70.00
2019-05-01T03:43:38.741Z,70.37
2019-05-01T03:44:39.357Z,70.92
2019-05-01T03:45:38.748Z,71.43
2019-05-01T03:46:38.704Z,71.63
2019-05-01T03:47:38.689Z,71.73
2019-05-01T03:48:38.679Z,72.04
2019-05-01T03:49:38.667Z,72.34
2019-05-01T03:50:38.685Z,72.45
2019-05-01T03:51:38.644Z,72.65
2019-05-01T03:52:38.634Z,72.96
2019-05-01T03:53:38.631Z,72.96
2019-05-01T03:54:38.656Z,73.06
2019-05-01T03:55:38.632Z,72.96
2019-05-01T03:56:40.348Z,73.16
2019-05-01T03:57:40.443Z,73.06
2019-05-01T03:58:38.573Z,73.27
2019-05-01T03:59:38.572Z,73.16
2019-05-01T04:00:38.619Z,73.16
2019-05-01T04:01:38.540Z,73.16
2019-05-01T04:02:38.535Z,73.27
2019-05-01T04:03:39.437Z,73.27
2019-05-01T04:04:38.516Z,73.36
2019-05-01T04:05:38.526Z,73.36
2019-05-01T04:06:38.494Z,73.36
2019-05-01T04:07:38.483Z,73.16
2019-05-01T04:08:38.467Z,73.30
2019-05-01T04:09:38.535Z,73.19
2019-05-01T04:10:38.487Z,73.50
2019-05-01T04:11:38.435Z,73.60
2019-05-01T04:12:38.431Z,73.71
2019-05-01T04:13:38.423Z,73.81
2019-05-01T04:14:39.371Z,73.81
2019-05-01T04:15:38.423Z,73.91
2019-05-01T04:16:38.392Z,73.91
2019-05-01T04:17:39.023Z,73.81
2019-05-01T04:18:38.370Z,73.91
2019-05-01T04:19:38.360Z,73.91
2019-05-01T04:20:38.378Z,74.01
2019-05-01T04:21:38.382Z,73.91
2019-05-01T04:22:39.138Z,73.81
2019-05-01T04:23:38.321Z,73.81
2019-05-01T04:24:38.320Z,73.60
2019-05-01T04:25:38.338Z,73.30
2019-05-01T04:26:38.286Z,73.40
2019-05-01T04:27:39.159Z,73.50
2019-05-01T04:28:38.266Z,73.40
2019-05-01T04:29:38.254Z,73.19
2019-05-01T04:30:38.266Z,73.19
2019-05-01T04:31:38.262Z,72.99
2019-05-01T04:32:52.200Z,72.89
2019-05-01T04:33:39.213Z,72.99
2019-05-01T04:34:38.202Z,72.79
2019-05-01T04:35:38.230Z,72.89
2019-05-01T04:36:38.185Z,72.75
2019-05-01T04:37:38.230Z,72.45
2019-05-01T04:38:38.153Z,72.45
2019-05-01T04:39:38.152Z,72.14
2019-05-01T04:40:38.146Z,71.94
2019-05-01T04:41:38.154Z,72.14
2019-05-01T04:42:38.120Z,71.94
2019-05-01T04:43:38.109Z,71.73
2019-05-01T04:44:38.100Z,71.94
2019-05-01T04:45:38.090Z,71.53
2019-05-01T04:46:38.127Z,71.53
2019-05-01T04:47:38.067Z,71.43
2019-05-01T04:48:38.678Z,71.43
2019-05-01T04:49:38.051Z,71.53
2019-05-01T04:50:38.032Z,71.43
2019-05-01T04:51:38.046Z,71.53
2019-05-01T04:52:38.013Z,71.43
2019-05-01T04:53:38.006Z,71.84
2019-05-01T04:54:38.574Z,71.53
2019-05-01T04:55:37.981Z,71.53
2019-05-01T04:56:38.001Z,71.53
2019-05-01T04:57:38.492Z,71.43
2019-05-01T04:58:37.958Z,71.53
2019-05-01T04:59:37.970Z,71.63
2019-05-01T05:00:37.931Z,71.94
2019-05-01T05:01:38.491Z,72.14
2019-05-01T05:02:38.590Z,72.45
2019-05-01T05:03:38.488Z,72.75
2019-05-01T05:04:39.487Z,72.96
2019-05-01T05:05:37.877Z,72.86
2019-05-01T05:06:37.915Z,73.47
2019-05-01T05:07:37.854Z,73.36
2019-05-01T05:08:37.845Z,73.47
2019-05-01T05:09:37.833Z,73.77
2019-05-01T05:10:37.824Z,73.88
2019-05-01T05:11:37.843Z,73.88
2019-05-01T05:12:37.883Z,74.22
2019-05-01T05:13:37.793Z,74.49
2019-05-01T05:14:37.790Z,74.38
2019-05-01T05:15:37.773Z,74.29
2019-05-01T05:16:37.791Z,74.52
2019-05-01T05:17:37.874Z,74.49
2019-05-01T05:18:37.741Z,74.63
2019-05-01T05:19:37.728Z,74.73
2019-05-01T05:20:37.739Z,74.59
2019-05-01T05:21:37.735Z,74.69
2019-05-01T05:22:37.697Z,74.79
2019-05-01T05:23:37.685Z,75.10
2019-05-01T05:24:37.676Z,75.41
2019-05-01T05:25:37.665Z,75.82
2019-05-01T05:26:37.698Z,75.95
2019-05-01T05:27:37.642Z,76.36
2019-05-01T05:28:37.635Z,76.56
2019-05-01T05:29:37.624Z,76.87
2019-05-01T05:30:37.615Z,77.08
2019-05-01T05:31:38.125Z,76.87
2019-05-01T05:32:37.593Z,76.97
2019-05-01T05:33:38.243Z,76.97
2019-05-01T05:34:37.563Z,76.97
2019-05-01T05:35:38.654Z,77.04
2019-05-01T05:36:37.581Z,76.97
2019-05-01T05:37:38.044Z,76.93
2019-05-01T05:38:38.261Z,76.93
2019-05-01T05:39:37.518Z,77.25
2019-05-01T05:40:37.511Z,77.14
2019-05-01T05:41:37.519Z,77.04
2019-05-01T05:42:37.488Z,77.14
2019-05-01T05:43:37.478Z,77.04
2019-05-01T05:44:37.471Z,76.63
2019-05-01T05:45:37.459Z,76.43
2019-05-01T05:46:37.467Z,76.32
2019-05-01T05:47:37.437Z,76.50
2019-05-01T05:48:37.456Z,76.09
2019-05-01T05:49:37.415Z,76.19
2019-05-01T05:50:37.406Z,76.19
2019-05-01T05:51:37.414Z,75.98
2019-05-01T05:52:37.383Z,75.98
2019-05-01T05:53:37.370Z,75.88
2019-05-01T05:54:37.389Z,75.57
2019-05-01T05:55:38.823Z,75.57
2019-05-01T05:56:37.342Z,75.44
2019-05-01T05:57:37.351Z,75.23
2019-05-01T05:58:37.322Z,75.03
2019-05-01T05:59:37.313Z,75.03
2019-05-01T06:00:39.032Z,74.83
2019-05-01T06:01:37.286Z,74.83
2019-05-01T06:02:37.306Z,75.13
2019-05-01T06:03:37.259Z,74.58
2019-05-01T06:04:37.257Z,73.97
2019-05-01T06:05:37.495Z,73.77
2019-05-01T06:06:37.237Z,73.97
2019-05-01T06:07:37.247Z,73.57
2019-05-01T06:08:37.213Z,73.67
2019-05-01T06:09:37.208Z,73.47
2019-05-01T06:10:38.055Z,73.02
2019-05-01T06:11:37.175Z,72.92
2019-05-01T06:12:41.581Z,72.92
2019-05-01T06:13:38.165Z,72.82
2019-05-01T06:14:37.672Z,73.13
2019-05-01T06:15:41.291Z,72.78
2019-05-01T06:16:40.365Z,72.48
2019-05-01T06:17:37.679Z,72.08
2019-05-01T06:18:39.314Z,71.36
2019-05-01T06:19:37.091Z,70.65
2019-05-01T06:20:37.543Z,70.34
2019-05-01T06:21:37.070Z,69.53
2019-05-01T06:22:40.733Z,69.80
2019-05-01T06:23:38.079Z,69.80
2019-05-01T06:24:40.512Z,70.31
2019-05-01T06:25:38.037Z,70.31
2019-05-01T06:26:39.255Z,70.41
2019-05-01T06:27:37.886Z,70.01
2019-05-01T06:28:36.996Z,69.87
2019-05-01T06:29:37.309Z,69.87
2019-05-01T06:30:36.975Z,69.36
2019-05-01T06:31:36.966Z,69.57
2019-05-01T06:32:39.699Z,69.57
2019-05-01T06:33:44.076Z,69.77
2019-05-01T06:34:38.693Z,69.67
2019-05-01T06:35:38.182Z,69.36
2019-05-01T06:36:36.911Z,68.96
2019-05-01T06:37:37.032Z,69.06
2019-05-01T06:38:37.803Z,69.33
2019-05-01T06:39:37.690Z,69.13
2019-05-01T06:40:36.869Z,68.92
2019-05-01T06:41:42.483Z,68.82
2019-05-01T06:42:38.689Z,68.92
2019-05-01T06:43:36.848Z,68.69
2019-05-01T06:44:39.285Z,68.52
2019-05-01T06:45:36.817Z,68.28
2019-05-01T06:46:36.806Z,68.08
2019-05-01T06:47:38.208Z,67.47
2019-05-01T06:48:37.808Z,66.96
2019-05-01T06:49:36.776Z,67.47
2019-05-01T06:50:41.075Z,67.57
2019-05-01T06:51:37.345Z,66.86
2019-05-01T06:52:38.168Z,66.86
2019-05-01T06:53:39.994Z,67.06
2019-05-01T06:54:37.016Z,67.36
2019-05-01T06:55:36.715Z,67.74
2019-05-01T06:56:37.612Z,67.74
2019-05-01T06:57:38.285Z,66.93
2019-05-01T06:58:37.899Z,67.24
2019-05-01T06:59:36.670Z,66.93
2019-05-01T07:00:39.164Z,66.22
2019-05-01T07:01:37.639Z,66.22
2019-05-01T07:02:36.942Z,66.02
2019-05-01T07:03:40.706Z,65.71
2019-05-01T07:04:38.489Z,65.10
2019-05-01T07:05:36.677Z,65.10
2019-05-01T07:06:36.617Z,65.00
2019-05-01T07:07:36.586Z,65.41
2019-05-01T07:08:39.433Z,64.70
2019-05-01T07:09:36.557Z,65.41
2019-05-01T07:10:43.486Z,65.30
2019-05-01T07:11:38.315Z,65.37
2019-05-01T07:12:36.530Z,65.58
2019-05-01T07:13:40.058Z,65.48
2019-05-01T07:14:36.512Z,65.17
2019-05-01T07:15:36.494Z,65.17
2019-05-01T07:16:37.961Z,65.34
2019-05-01T07:17:36.481Z,64.97
2019-05-01T07:18:36.492Z,64.56
2019-05-01T07:19:40.289Z,64.06
2019-05-01T07:20:36.440Z,64.36
2019-05-01T07:21:36.431Z,64.56
2019-05-01T07:22:37.067Z,64.64
2019-05-01T07:23:37.439Z,65.24
2019-05-01T07:24:36.407Z,65.14
2019-05-01T07:25:39.372Z,64.43
2019-05-01T07:26:36.386Z,64.73
2019-05-01T07:27:36.367Z,63.52
2019-05-01T07:28:36.416Z,63.72
2019-05-01T07:29:39.978Z,64.13
2019-05-01T07:30:38.269Z,64.23
2019-05-01T07:31:36.325Z,64.10
2019-05-01T07:32:40.607Z,63.52
2019-05-01T07:33:36.895Z,63.21
2019-05-01T07:34:36.293Z,62.98
2019-05-01T07:35:36.673Z,63.08
2019-05-01T07:36:36.818Z,62.88
2019-05-01T07:37:36.287Z,62.65
2019-05-01T07:38:38.208Z,62.45
2019-05-01T07:39:36.249Z,62.41
2019-05-01T07:40:36.231Z,62.82
2019-05-01T07:41:37.747Z,63.12
2019-05-01T07:42:36.210Z,62.11
2019-05-01T07:43:36.230Z,60.77
2019-05-01T07:44:36.268Z,60.46
2019-05-01T07:45:38.979Z,59.65
2019-05-01T07:46:37.168Z,60.86
2019-05-01T07:47:36.158Z,61.68
2019-05-01T07:48:41.306Z,60.86
2019-05-01T07:49:37.187Z,60.57
2019-05-01T07:50:36.124Z,60.66
2019-05-01T07:51:37.775Z,60.57
2019-05-01T07:52:37.106Z,61.07
2019-05-01T07:53:36.096Z,61.37
2019-05-01T07:54:37.794Z,60.77
2019-05-01T07:55:37.081Z,60.36
2019-05-01T07:56:36.063Z,59.65
2019-05-01T07:57:39.684Z,60.77
2019-05-01T07:58:37.041Z,61.07
2019-05-01T07:59:36.061Z,60.57
2019-05-01T08:00:37.020Z,61.27
2019-05-01T08:01:37.011Z,61.07
2019-05-01T08:02:36.000Z,60.57
2019-05-01T08:03:37.979Z,60.97
2019-05-01T08:04:37.014Z,61.37
2019-05-01T08:05:35.969Z,61.10
2019-05-01T08:06:35.962Z,61.60
2019-05-01T08:07:35.982Z,61.51
2019-05-01T08:08:39.581Z,61.80
2019-05-01T08:09:37.859Z,62.24
2019-05-01T08:10:35.952Z,62.45
2019-05-01T08:11:39.244Z,62.45
2019-05-01T08:12:36.895Z,62.45
2019-05-01T08:13:36.362Z,62.75
2019-05-01T08:14:35.897Z,62.54
2019-05-01T08:15:35.862Z,61.53
2019-05-01T08:16:37.811Z,61.02
2019-05-01T08:17:36.842Z,60.93
2019-05-01T08:18:36.243Z,60.72
2019-05-01T08:19:39.326Z,60.82
2019-05-01T08:20:35.812Z,60.31
2019-05-01T08:21:35.801Z,60.31
2019-05-01T08:22:37.408Z,60.01
2019-05-01T08:23:35.774Z,59.91
2019-05-01T08:24:35.800Z,59.61
2019-05-01T08:25:35.751Z,59.81
2019-05-01T08:26:39.751Z,59.68
2019-05-01T08:27:36.739Z,59.88
2019-05-01T08:28:35.730Z,59.99
2019-05-01T08:29:37.012Z,59.88
2019-05-01T08:30:36.707Z,59.58
2019-05-01T08:31:35.726Z,59.34
2019-05-01T08:32:39.124Z,58.81
2019-05-01T08:33:36.694Z,58.89
2019-05-01T08:34:48.006Z,59.16
2019-05-01T08:35:37.645Z,58.96
2019-05-01T08:36:35.644Z,58.43
2019-05-01T08:37:35.636Z,57.09
2019-05-01T08:38:35.655Z,56.35
2019-05-01T08:39:39.549Z,56.52
2019-05-01T08:40:37.332Z,54.38
2019-05-01T08:41:37.700Z,54.86
2019-05-01T08:42:37.649Z,54.23
2019-05-01T08:44:40.747Z,55.01
2019-05-01T08:45:42.389Z,52.89
2019-05-01T08:46:40.191Z,52.87
2019-05-01T08:47:40.295Z,52.57
2019-05-01T08:48:40.887Z,52.54
2019-05-01T08:49:42.265Z,53.72
2019-05-01T08:50:41.005Z,51.71
2019-05-01T08:51:40.154Z,51.59
2019-05-01T08:52:42.649Z,51.39
2019-05-01T08:53:40.952Z,50.96
2019-05-01T08:54:40.086Z,50.35
2019-05-01T08:55:45.202Z,50.86
2019-05-01T08:56:43.637Z,50.84
2019-05-01T08:57:39.912Z,51.04
2019-05-01T08:58:40.127Z,50.03
2019-05-01T08:59:39.890Z,49.71
2019-05-01T09:00:41.265Z,48.00
2019-05-01T09:01:40.262Z,48.90
2019-05-01T09:02:41.552Z,47.97
2019-05-01T09:03:40.792Z,48.96
2019-05-01T09:04:39.847Z,49.05
2019-05-01T09:05:39.951Z,48.75
2019-05-01T09:06:43.825Z,48.05
2019-05-01T09:07:41.012Z,47.60
2019-05-01T09:12:22.517Z,49.02
2019-05-01T09:13:23.801Z,47.04
2019-05-01T09:14:22.483Z,48.43
2019-05-01T09:15:23.317Z,48.32
2019-05-01T09:16:23.376Z,48.93
2019-05-01T09:17:24.056Z,47.22
2019-05-01T09:18:22.445Z,47.24
2019-05-01T09:19:22.416Z,46.03
2019-05-01T09:20:22.413Z,46.94
2019-05-01T09:21:22.453Z,46.81
2019-05-01T09:22:22.383Z,47.34
2019-05-01T09:23:22.865Z,47.24
2019-05-01T09:24:23.056Z,47.74
2019-05-01T09:25:23.353Z,47.04
2019-05-01T09:26:22.369Z,47.24
2019-05-01T09:27:24.047Z,47.34
2019-05-01T09:28:24.129Z,47.14
2019-05-01T09:29:22.355Z,47.44
2019-05-01T09:30:26.771Z,47.34
2019-05-01T09:31:22.330Z,47.44
2019-05-01T09:32:22.280Z,46.84
2019-05-01T09:33:26.118Z,46.94
2019-05-01T09:34:23.967Z,48.25
2019-05-01T09:35:22.247Z,47.04
2019-05-01T09:36:23.468Z,46.73
2019-05-01T09:37:22.228Z,46.44
2019-05-01T09:38:22.226Z,46.51
2019-05-01T09:39:22.235Z,47.12
2019-05-01T09:40:22.195Z,46.22
2019-05-01T09:41:23.471Z,45.81
2019-05-01T09:42:23.707Z,45.31
2019-05-01T09:43:23.090Z,45.51
2019-05-01T09:44:22.153Z,46.31
2019-05-01T09:45:22.152Z,46.41
2019-05-01T09:46:22.164Z,46.81
2019-05-01T09:47:22.141Z,45.94
2019-05-01T09:48:22.116Z,47.64
2019-05-01T09:49:23.082Z,47.12
2019-05-01T09:50:25.944Z,47.34
2019-05-01T09:51:23.141Z,45.91
2019-05-01T09:52:23.429Z,46.34
2019-05-01T09:53:22.060Z,47.44
2019-05-01T09:54:22.040Z,46.92
2019-05-01T09:55:23.424Z,46.51
2019-05-01T09:56:22.979Z,47.12
2019-05-01T09:57:22.061Z,46.41
2019-05-01T09:58:22.008Z,46.19
2019-05-01T09:59:21.998Z,46.89
2019-05-01T10:00:21.997Z,45.89
2019-05-01T10:01:24.132Z,46.39
2019-05-01T10:02:22.986Z,47.00
2019-05-01T10:03:21.947Z,46.69
2019-05-01T10:04:25.333Z,45.59
2019-05-01T10:05:28.886Z,45.99
2019-05-01T10:06:23.513Z,46.09
2019-05-01T10:07:24.016Z,46.69
2019-05-01T10:08:22.895Z,45.69
2019-05-01T10:09:21.885Z,45.49
2019-05-01T10:10:24.888Z,46.59
2019-05-01T10:11:22.888Z,46.69
2019-05-01T10:12:21.882Z,45.79
2019-05-01T10:13:22.392Z,46.19
2019-05-01T10:14:22.640Z,47.00
2019-05-01T10:15:21.820Z,47.00
2019-05-01T10:16:21.879Z,46.41
2019-05-01T10:17:22.520Z,46.41
2019-05-01T10:18:21.799Z,47.02
2019-05-01T10:19:21.779Z,47.19
2019-05-01T10:20:21.770Z,47.19
2019-05-01T10:21:22.433Z,46.51
2019-05-01T10:22:22.767Z,45.81
2019-05-01T10:23:21.799Z,45.73
2019-05-01T10:24:21.727Z,45.91
2019-05-01T10:25:21.718Z,46.41
2019-05-01T10:26:23.975Z,46.41
2019-05-01T10:27:21.717Z,46.92
2019-05-01T10:28:21.691Z,47.12
2019-05-01T10:29:25.900Z,46.92
2019-05-01T10:30:22.663Z,46.61
2019-05-01T10:31:23.521Z,46.41
2019-05-01T10:32:23.192Z,46.31
2019-05-01T10:33:21.682Z,46.51
2019-05-01T10:34:23.913Z,46.23
2019-05-01T10:35:21.603Z,45.63
2019-05-01T10:36:22.134Z,44.51
2019-05-01T10:37:23.647Z,44.81
2019-05-01T10:38:21.603Z,45.01
2019-05-01T10:39:22.431Z,44.51
2019-05-01T10:40:22.417Z,44.60
2019-05-01T10:41:21.549Z,45.41
2019-05-01T10:42:21.580Z,45.51
2019-05-01T10:43:21.552Z,45.21
2019-05-01T10:44:21.509Z,45.31
2019-05-01T10:45:21.499Z,45.71
2019-05-01T10:46:22.167Z,46.31
2019-05-01T10:47:21.487Z,44.81
2019-05-01T10:48:21.998Z,45.49
2019-05-01T10:49:21.457Z,44.54
2019-05-01T10:50:21.447Z,44.50
2019-05-01T10:51:21.442Z,44.68
2019-05-01T10:52:21.452Z,44.16
2019-05-01T10:53:21.444Z,43.24
2019-05-01T10:54:21.404Z,44.01
2019-05-01T10:55:22.214Z,39.91
2019-05-01T10:56:21.389Z,39.79
2019-05-01T10:57:21.420Z,40.30
2019-05-01T10:58:21.413Z,41.08
2019-05-01T10:59:21.459Z,42.05
2019-05-01T11:00:21.345Z,40.83
2019-05-01T11:01:21.332Z,41.24
2019-05-01T11:02:21.321Z,41.31
2019-05-01T11:03:21.356Z,40.89
2019-05-01T11:04:21.341Z,40.50
2019-05-01T11:05:21.290Z,37.81
2019-05-01T11:06:21.279Z,39.58
2019-05-01T11:07:22.090Z,39.08
2019-05-01T11:08:22.089Z,38.86
2019-05-01T11:09:21.248Z,37.97
2019-05-01T11:10:21.241Z,37.57
2019-05-01T11:11:21.453Z,36.87
2019-05-01T11:12:21.879Z,36.49
2019-05-01T11:13:21.227Z,36.61
2019-05-01T11:14:21.197Z,39.68
2019-05-01T11:15:21.186Z,38.46
2019-05-01T11:16:21.986Z,37.35
2019-05-01T11:17:21.930Z,37.55
2019-05-01T11:18:21.729Z,35.75
2019-05-01T11:19:21.146Z,35.77
2019-05-01T11:20:21.125Z,36.25
2019-05-01T11:21:21.136Z,36.16
2019-05-01T11:22:21.112Z,36.76
2019-05-01T11:23:21.214Z,36.93
2019-05-01T11:24:21.096Z,34.22
2019-05-01T11:25:21.081Z,32.53
2019-05-01T11:26:22.033Z,32.31
2019-05-01T11:27:21.063Z,33.12
2019-05-01T11:28:21.071Z,32.60
2019-05-01T11:29:21.067Z,33.62
2019-05-01T11:30:21.084Z,34.83
2019-05-01T11:31:21.027Z,34.33
2019-05-01T11:32:21.672Z,34.45
2019-05-01T11:33:23.819Z,34.06
2019-05-01T11:34:21.031Z,35.08
2019-05-01T11:35:20.978Z,35.26
2019-05-01T11:36:20.996Z,34.56
2019-05-01T11:37:20.958Z,35.38
2019-05-01T11:38:21.179Z,34.61
2019-05-01T11:39:20.936Z,35.94
2019-05-01T11:40:21.046Z,36.68
2019-05-01T11:41:20.908Z,37.93
2019-05-01T11:42:20.947Z,38.15
2019-05-01T11:43:20.916Z,39.05
2019-05-01T11:44:20.892Z,39.67
2019-05-01T11:45:20.865Z,40.07
2019-05-01T11:46:20.906Z,40.65
2019-05-01T11:47:20.867Z,39.43
2019-05-01T11:48:20.841Z,38.33
2019-05-01T11:49:20.854Z,38.71
2019-05-01T11:50:20.953Z,37.92
2019-05-01T11:51:20.839Z,37.83
2019-05-01T11:52:21.105Z,38.11
2019-05-01T11:53:21.123Z,38.40
2019-05-01T11:54:20.903Z,38.38
2019-05-01T11:55:21.201Z,36.86
2019-05-01T11:56:21.264Z,36.43
2019-05-01T11:57:20.740Z,36.61
2019-05-01T11:58:20.866Z,36.51
2019-05-01T11:59:20.832Z,37.19
2019-05-01T12:00:20.742Z,38.37
2019-05-01T12:01:20.700Z,34.78
2019-05-01T12:02:20.687Z,34.34
2019-05-01T12:03:20.681Z,34.33
2019-05-01T12:04:20.861Z,33.73
2019-05-01T12:05:20.655Z,33.62
2019-05-01T12:06:22.912Z,34.10
2019-05-01T12:07:20.628Z,32.31
2019-05-01T12:08:20.632Z,33.80
2019-05-01T12:09:20.637Z,33.11
2019-05-01T12:10:20.606Z,33.70
2019-05-01T12:11:20.589Z,32.20
2019-05-01T12:12:20.582Z,32.89
2019-05-01T12:13:20.631Z,32.20
2019-05-01T12:14:20.623Z,33.69
2019-05-01T12:15:20.573Z,32.60
2019-05-01T12:16:20.543Z,33.02
2019-05-01T12:17:20.534Z,35.41
2019-05-01T12:18:20.521Z,34.43
2019-05-01T12:19:20.542Z,35.63
2019-05-01T12:20:20.493Z,35.03
2019-05-01T12:21:20.495Z,35.13
2019-05-01T12:22:20.472Z,34.41
2019-05-01T12:23:20.472Z,34.41
2019-05-01T12:24:20.479Z,36.64
2019-05-01T12:25:20.443Z,36.10
2019-05-01T12:26:20.430Z,35.59
2019-05-01T12:27:20.444Z,35.66
2019-05-01T12:28:20.428Z,34.55
2019-05-01T12:29:20.428Z,33.64
2019-05-01T12:30:20.398Z,33.54
2019-05-01T12:31:20.402Z,33.04
2019-05-01T12:32:20.367Z,33.34
2019-05-01T12:33:20.358Z,33.54
2019-05-01T12:34:21.229Z,33.42
2019-05-01T12:35:20.378Z,32.33
2019-05-01T12:36:20.328Z,31.85
2019-05-01T12:37:20.336Z,31.67
2019-05-01T12:38:20.307Z,32.24
2019-05-01T12:39:20.324Z,30.25
2019-05-01T12:40:20.287Z,30.22
2019-05-01T12:41:20.275Z,31.42
2019-05-01T12:42:20.261Z,32.33
2019-05-01T12:43:20.307Z,33.40
2019-05-01T12:44:20.504Z,31.81
2019-05-01T12:45:20.234Z,32.98
2019-05-01T12:46:20.214Z,32.48
2019-05-01T12:47:20.255Z,31.59
2019-05-01T12:48:20.200Z,31.79
2019-05-01T12:49:20.231Z,32.17
2019-05-01T12:50:20.183Z,32.76
2019-05-01T12:51:20.727Z,32.06
2019-05-01T12:52:20.160Z,31.38
2019-05-01T12:53:20.161Z,30.58
2019-05-01T12:54:20.723Z,30.87
2019-05-01T12:55:20.133Z,30.67
2019-05-01T12:56:20.142Z,30.65
2019-05-01T12:57:20.100Z,30.18